Time;durP1;ratioP1;P1;durP2;ratioP2;P2;SDS_P1;SDS_P2;PMS_P1;PMS_P2;Temp;Humidity;BMP_temperature;BMP_pressure;BME280_temperature;BME280_humidity;BME280_pressure;Samples;Min_cycle;Max_cycle;Signal;HPM_P1;HPM_P2
2023/01/11 00:01:53;;;;;;;16.17;6.70;;;;;;;17.77;69.99;100564.63;5090987;28;20059;-67
2023/01/11 00:04:19;;;;;;;9.17;5.83;;;;;;;16.81;73.98;100541.38;5113555;28;20037;-67
2023/01/11 00:06:45;;;;;;;14.57;6.43;;;;;;;17.74;70.03;100548.91;5113589;28;20470;-67
2023/01/11 00:09:11;;;;;;;12.10;6.63;;;;;;;18.20;66.96;100548.63;5098119;27;20064;-67
2023/01/11 00:11:37;;;;;;;14.37;7.23;;;;;;;17.65;69.50;100539.59;5096302;28;20035;-68
2023/01/11 00:14:02;;;;;;;19.73;6.47;;;;;;;17.44;73.48;100547.53;5113333;28;20024;-67
2023/01/11 00:16:27;;;;;;;14.70;6.53;;;;;;;17.41;73.39;100537.09;5094465;28;20031;-67
2023/01/11 00:18:53;;;;;;;13.23;6.63;;;;;;;17.10;73.81;100546.34;5094710;28;20375;-67
2023/01/11 00:21:18;;;;;;;13.63;5.67;;;;;;;17.50;72.97;100537.63;5099652;27;20019;-67
2023/01/11 00:23:48;;;;;;;12.17;5.80;;;;;;;16.84;75.87;100547.38;5115943;27;20502;-67
2023/01/11 00:26:13;;;;;;;17.23;5.97;;;;;;;17.91;73.65;100542.88;5109856;28;20115;-67
2023/01/11 00:28:38;;;;;;;10.13;5.50;;;;;;;16.77;75.74;100546.78;5110206;28;20110;-67
2023/01/11 00:31:04;;;;;;;11.60;5.43;;;;;;;17.63;75.56;100539.66;5094731;28;20114;-67
2023/01/11 00:33:30;;;;;;;15.40;5.63;;;;;;;17.34;74.56;100550.63;5094793;28;20035;-67
2023/01/11 00:35:55;;;;;;;11.97;4.90;;;;;;;17.26;74.75;100543.06;5094016;28;20022;-67
2023/01/11 00:39:03;;;;;;;14.70;5.03;;;;;;;17.70;71.36;100532.31;5093451;28;20475;-67
2023/01/11 00:49:24;;;;;;;7.43;4.97;;;;;;;16.77;74.89;100533.59;5113046;27;20493;-67
2023/01/11 00:51:50;;;;;;;14.57;5.90;;;;;;;17.46;73.66;100529.84;5133925;27;20035;-67
2023/01/11 00:54:16;;;;;;;11.07;5.97;;;;;;;17.44;76.67;100536.13;5133669;27;20698;-67
2023/01/11 00:56:41;;;;;;;12.30;5.30;;;;;;;18.07;73.22;100525.41;5130342;27;20029;-67
2023/01/11 00:59:07;;;;;;;13.63;5.00;;;;;;;17.71;72.66;100533.19;5093922;28;20038;-67
2023/01/11 01:01:32;;;;;;;9.53;5.23;;;;;;;17.70;75.32;100528.84;5112633;28;20070;-67
2023/01/11 01:04:01;;;;;;;11.33;5.20;;;;;;;17.01;77.13;100522.97;5122605;27;20027;-67
2023/01/11 01:06:43;;;;;;;10.43;5.20;;;;;;;17.57;72.62;100536.44;5120290;27;20397;-67
2023/01/11 01:09:08;;;;;;;13.57;5.30;;;;;;;17.53;76.74;100534.84;5098054;28;20044;-67
2023/01/11 01:11:34;;;;;;;13.43;4.43;;;;;;;17.76;73.90;100526.78;5047543;28;20033;-67
2023/01/11 01:16:46;;;;;;;11.07;5.57;;;;;;;17.84;73.92;100534.34;5051479;28;20082;-67
2023/01/11 01:19:11;;;;;;;10.80;5.23;;;;;;;17.56;73.51;100540.03;5066233;28;20021;-67
2023/01/11 01:21:37;;;;;;;8.70;5.70;;;;;;;17.49;74.37;100535.91;5065750;28;20048;-67
2023/01/11 01:24:02;;;;;;;12.33;6.00;;;;;;;17.64;71.92;100541.38;5065546;28;20082;-67
2023/01/11 01:26:28;;;;;;;16.30;5.90;;;;;;;18.85;66.25;100549.09;5066920;28;20124;-67
2023/01/11 01:28:53;;;;;;;11.57;5.77;;;;;;;18.19;70.77;100536.34;5066788;28;20078;-66
2023/01/11 01:31:19;;;;;;;13.47;6.43;;;;;;;17.61;72.92;100549.47;5051128;28;20412;-67
2023/01/11 01:33:44;;;;;;;9.00;5.17;;;;;;;17.50;72.70;100529.72;5046018;28;20027;-67
2023/01/11 01:36:09;;;;;;;7.30;4.97;;;;;;;17.62;72.56;100545.03;5062484;28;20472;-67
2023/01/11 01:38:35;;;;;;;7.77;5.13;;;;;;;18.52;69.58;100557.72;5048640;28;20027;-67
2023/01/11 01:41:00;;;;;;;10.47;5.53;;;;;;;18.81;64.75;100558.94;5065626;28;20078;-67
2023/01/11 01:43:49;;;;;;;8.30;4.90;;;;;;;18.33;68.71;100563.03;5064734;28;20025;-67
2023/01/11 01:46:16;;;;;;;7.37;5.00;;;;;;;16.85;77.68;100569.38;5063459;28;20075;-67
2023/01/11 01:48:47;;;;;;;7.10;4.13;;;;;;;16.95;79.15;100570.72;5047773;28;20029;-67
2023/01/11 01:51:22;;;;;;;8.47;4.53;;;;;;;18.14;73.14;100574.44;5046653;28;20028;-67
2023/01/11 01:53:50;;;;;;;6.97;4.30;;;;;;;17.75;74.20;100577.94;5046184;28;20021;-67
2023/01/11 01:56:22;;;;;;;11.20;4.80;;;;;;;18.37;70.65;100572.53;5050587;28;20028;-67
2023/01/11 01:58:52;;;;;;;6.47;4.50;;;;;;;18.23;70.63;100572.28;5064490;28;20037;-67
2023/01/11 02:04:11;;;;;;;6.30;4.10;;;;;;;17.97;72.87;100584.94;5067096;28;20040;-67
2023/01/11 02:06:37;;;;;;;9.53;4.10;;;;;;;18.22;69.35;100573.25;5061899;28;20068;-67
2023/01/11 02:09:10;;;;;;;5.87;4.10;;;;;;;18.44;67.79;100581.88;5065343;28;20040;-67
2023/01/11 02:11:42;;;;;;;;;;;;;;;18.22;69.48;100578.53;5065382;28;20031;-67
2023/01/11 02:14:13;;;;;;;7.77;4.53;;;;;;;18.18;66.69;100582.25;5065585;28;19916;-67
2023/01/11 02:16:38;;;;;;;8.77;4.90;;;;;;;18.55;67.53;100588.47;5058257;28;20056;-68
2023/01/11 02:19:11;;;;;;;7.27;5.07;;;;;;;19.02;65.91;100582.69;5067933;28;20056;-67
2023/01/11 02:21:57;;;;;;;6.43;4.00;;;;;;;18.75;67.71;100579.56;5048112;28;20021;-67
2023/01/11 02:24:34;;;;;;;5.40;4.33;;;;;;;18.03;69.78;100582.00;5082390;28;20053;-67
2023/01/11 02:27:15;;;;;;;6.07;3.63;;;;;;;18.78;66.82;100580.28;5051457;28;20036;-67
2023/01/11 02:30:02;;;;;;;5.33;3.50;;;;;;;18.51;68.25;100586.91;5044009;28;20025;-67
2023/01/11 02:32:52;;;;;;;5.50;4.00;;;;;;;17.94;71.86;100577.13;5031427;28;20079;-67
2023/01/11 02:35:33;;;;;;;4.57;4.10;;;;;;;18.79;67.68;100576.72;5030822;28;20025;-67
2023/01/11 02:38:09;;;;;;;6.60;4.25;;;;;;;19.08;65.20;100582.41;5037888;28;20397;-67
2023/01/11 02:40:49;;;;;;;5.70;5.00;;;;;;;17.94;72.91;100590.34;5047466;28;20033;-67
2023/01/11 02:46:33;;;;;;;7.43;4.73;;;;;;;18.07;70.92;100588.88;5032938;28;20064;-67
2023/01/11 02:49:05;;;;;;;10.77;4.80;;;;;;;18.96;66.04;100583.00;5031557;28;20451;-67
2023/01/11 02:51:40;;;;;;;6.77;4.63;;;;;;;18.86;67.91;100585.19;5047630;28;20030;-67
2023/01/11 02:54:09;;;;;;;8.55;4.15;;;;;;;19.18;65.31;100587.22;5042870;28;20035;-67
2023/01/11 02:56:41;;;;;;;4.37;3.63;;;;;;;18.46;69.65;100585.34;5050466;28;20048;-67
2023/01/11 02:59:16;;;;;;;7.40;3.10;;;;;;;18.34;71.79;100591.19;5050053;28;20511;-67
2023/01/11 03:01:51;;;;;;;4.57;2.93;;;;;;;18.52;69.59;100601.84;5052568;28;20021;-67
2023/01/11 03:04:31;;;;;;;6.93;3.77;;;;;;;18.07;70.67;100604.75;5050595;28;20128;-67
2023/01/11 03:07:24;;;;;;;8.03;3.80;;;;;;;19.02;66.99;100603.03;5049251;28;20140;-67
2023/01/11 03:10:17;;;;;;;6.82;3.72;;;;;;;19.15;66.52;100599.72;5081351;28;20094;-67
2023/01/11 03:12:56;;;;;;;8.35;3.63;;;;;;;18.58;68.51;100609.50;5051248;28;20120;-67
2023/01/11 03:15:43;;;;;;;6.70;3.97;;;;;;;18.31;67.60;100613.38;5050998;28;20094;-67
2023/01/11 03:18:30;;;;;;;11.00;3.45;;;;;;;18.89;65.58;100623.94;5049397;28;20064;-67
2023/01/11 03:21:10;;;;;;;4.97;3.63;;;;;;;19.45;63.92;100612.38;5051556;28;20477;-67
2023/01/11 03:24:04;;;;;;;9.27;3.70;;;;;;;18.81;69.60;100621.66;5036990;28;20036;-67
2023/01/11 03:26:37;;;;;;;5.53;3.13;;;;;;;19.83;62.69;100598.94;5048009;28;20071;-67
2023/01/11 03:29:28;;;;;;;8.13;3.10;;;;;;;18.76;65.77;100607.75;5041271;28;20033;-67
2023/01/11 03:32:21;;;;;;;6.97;3.30;;;;;;;18.84;64.82;100610.06;5026617;28;20441;-67
2023/01/11 03:35:18;;;;;;;14.43;3.20;;;;;;;19.20;64.35;100612.72;5047826;28;20388;-67
2023/01/11 03:38:06;;;;;;;9.40;3.00;;;;;;;18.75;65.41;100601.63;5039491;28;20054;-67
2023/01/11 03:41:00;;;;;;;15.47;2.90;;;;;;;19.17;62.46;100619.97;5049943;28;20029;-67
2023/01/11 03:43:26;;;;;;;;;;;;;;;18.50;66.92;100614.28;5040810;28;20137;-67
2023/01/11 03:46:01;;;;;;;14.05;2.88;;;;;;;18.37;66.94;100609.56;5049521;28;19916;-67
2023/01/11 03:48:41;;;;;;;13.13;2.30;;;;;;;18.91;63.47;100612.34;5049165;28;20398;-67
2023/01/11 03:51:11;;;;;;;20.60;3.60;;;;;;;19.23;63.20;100627.59;5049630;28;20036;-67
2023/01/11 03:53:38;;;;;;;15.03;2.37;;;;;;;18.45;68.42;100622.44;5048456;28;20033;-67
2023/01/11 03:56:09;;;;;;;17.90;2.87;;;;;;;18.28;66.29;100628.50;5034927;28;20045;-67
2023/01/11 03:58:35;;;;;;;14.33;2.73;;;;;;;18.54;62.74;100631.75;5038938;28;20388;-67
2023/01/11 04:01:01;;;;;;;14.87;2.40;;;;;;;18.42;66.02;100636.69;5035673;28;20033;-68
2023/01/11 04:03:27;;;;;;;16.15;2.42;;;;;;;18.58;62.75;100658.00;5037818;28;20392;-67
2023/01/11 04:05:57;;;;;;;15.20;2.50;;;;;;;18.40;66.26;100654.41;5081330;28;20055;-67
2023/01/11 04:08:22;;;;;;;25.27;2.90;;;;;;;18.92;62.80;100666.19;5048854;28;20100;-67
2023/01/11 04:10:48;;;;;;;23.33;4.07;;;;;;;18.90;65.05;100673.34;5051016;28;20108;-67
2023/01/11 04:13:13;;;;;;;18.63;3.00;;;;;;;18.55;65.66;100678.47;5080734;28;20028;-67
2023/01/11 04:15:39;;;;;;;14.80;2.80;;;;;;;18.62;66.06;100674.59;5050241;28;20025;-67
2023/01/11 04:18:05;;;;;;;26.93;3.60;;;;;;;17.97;69.03;100680.13;5051070;28;20151;-69
2023/01/11 04:20:35;;;;;;;21.23;3.07;;;;;;;18.78;63.98;100680.91;5048641;28;20032;-67
2023/01/11 04:23:01;;;;;;;22.90;3.83;;;;;;;17.88;66.10;100669.91;5048438;28;20068;-69
2023/01/11 04:25:27;;;;;;;16.23;2.97;;;;;;;18.96;63.50;100667.75;5049494;28;20037;-67
2023/01/11 04:27:52;;;;;;;28.20;4.17;;;;;;;18.03;65.79;100669.28;5048700;28;20116;-67
2023/01/11 04:30:18;;;;;;;21.17;3.57;;;;;;;18.77;61.43;100663.28;5050592;28;20029;-67
2023/01/11 04:32:43;;;;;;;21.93;3.10;;;;;;;18.13;66.41;100677.66;5049760;28;20508;-67
2023/01/11 04:35:09;;;;;;;21.23;3.67;;;;;;;17.85;64.45;100691.22;5044152;28;20189;-66
2023/01/11 04:37:34;;;;;;;20.07;3.00;;;;;;;18.86;61.15;100690.25;5047029;28;20064;-67
2023/01/11 04:40:00;;;;;;;18.80;3.37;;;;;;;17.78;64.68;100704.66;5029076;28;20116;-67
2023/01/11 04:42:25;;;;;;;19.33;2.63;;;;;;;18.19;62.63;100702.97;5028197;28;20025;-67
2023/01/11 04:44:51;;;;;;;28.90;3.28;;;;;;;18.79;61.19;100697.63;5049742;28;20547;-67
2023/01/11 04:47:19;;;;;;;30.07;3.63;;;;;;;17.89;62.23;100690.16;5046708;28;20025;-68
2023/01/11 04:49:44;;;;;;;31.00;4.13;;;;;;;18.63;59.10;100693.06;5048372;28;20086;-67
2023/01/11 04:52:11;;;;;;;20.20;3.43;;;;;;;17.98;62.61;100705.63;5049535;28;20485;-67
2023/01/11 04:54:37;;;;;;;25.53;4.00;;;;;;;18.50;59.61;100717.50;5049229;28;20021;-67
2023/01/11 04:57:03;;;;;;;20.57;3.50;;;;;;;18.45;60.53;100718.56;5048802;28;20025;-66
2023/01/11 04:59:29;;;;;;;28.00;4.40;;;;;;;18.95;56.79;100711.06;5044424;28;20025;-67
2023/01/11 05:01:54;;;;;;;18.23;2.63;;;;;;;17.80;62.79;100721.34;5048884;28;20566;-67
2023/01/11 05:04:20;;;;;;;23.00;2.83;;;;;;;18.52;58.99;100720.94;5048515;28;20380;-66
2023/01/11 05:06:45;;;;;;;15.13;2.87;;;;;;;17.88;58.22;100710.41;5048980;28;20017;-67
2023/01/11 05:09:13;;;;;;;20.03;3.40;;;;;;;17.54;61.97;100721.53;5035294;28;20068;-67
2023/01/11 05:11:39;;;;;;;23.50;2.93;;;;;;;18.29;57.12;100725.47;5030307;28;20024;-69
2023/01/11 05:14:04;;;;;;;24.07;3.03;;;;;;;18.73;55.69;100735.84;5034875;28;20025;-67
2023/01/11 05:16:30;;;;;;;16.20;2.70;;;;;;;17.35;58.87;100735.50;5047938;28;20048;-67
2023/01/11 05:18:57;;;;;;;11.67;2.07;;;;;;;17.76;58.58;100740.91;5038513;28;20029;-67
2023/01/11 05:21:25;;;;;;;16.70;2.73;;;;;;;18.89;54.91;100736.03;5028294;28;20021;-67
2023/01/11 05:23:52;;;;;;;14.77;2.27;;;;;;;19.34;53.07;100741.88;5029374;28;20053;-68
2023/01/11 05:26:23;;;;;;;33.57;2.83;;;;;;;19.35;52.36;100743.59;5047316;28;20488;-67
2023/01/11 05:28:50;;;;;;;22.27;2.57;;;;;;;18.69;54.47;100750.16;5047713;28;20029;-67
2023/01/11 05:31:16;;;;;;;23.50;2.87;;;;;;;17.35;58.58;100754.00;5043769;28;20082;-67
2023/01/11 05:33:42;;;;;;;18.90;2.67;;;;;;;17.92;57.23;100758.78;5035487;28;20021;-67
2023/01/11 05:36:12;;;;;;;22.83;3.40;;;;;;;18.36;55.07;100758.66;5028774;28;20013;-67
2023/01/11 05:38:37;;;;;;;15.33;2.93;;;;;;;16.73;59.43;100760.72;5035314;28;20087;-67
2023/01/11 05:41:08;;;;;;;11.50;2.23;;;;;;;17.89;55.97;100758.91;5046590;28;20044;-67
2023/01/11 05:46:25;;;;;;;20.57;2.70;;;;;;;18.27;54.60;100773.16;5030002;28;20064;-67
2023/01/11 05:48:53;;;;;;;19.63;2.70;;;;;;;18.32;53.11;100775.59;5037504;28;20409;-67
2023/01/11 05:51:19;;;;;;;18.60;2.17;;;;;;;18.59;53.27;100770.88;5080109;28;20028;-67
2023/01/11 05:53:44;;;;;;;16.53;2.57;;;;;;;17.55;55.49;100773.47;5044267;28;20033;-67
2023/01/11 05:56:09;;;;;;;19.30;3.07;;;;;;;17.41;55.91;100761.66;5032287;28;20481;-67
2023/01/11 05:58:35;;;;;;;24.47;2.83;;;;;;;18.08;54.85;100770.44;5046504;28;20032;-67
2023/01/11 06:01:00;;;;;;;18.67;2.30;;;;;;;17.67;55.47;100778.28;5052920;28;20393;-68
2023/01/11 06:03:26;;;;;;;19.67;3.03;;;;;;;17.49;54.15;100776.34;5051620;28;20092;-67
2023/01/11 06:05:52;;;;;;;17.53;2.20;;;;;;;17.27;57.77;100788.63;5042700;28;20042;-67
2023/01/11 06:08:18;;;;;;;14.43;2.13;;;;;;;18.27;53.18;100801.38;5051907;28;20074;-67
2023/01/11 06:10:50;;;;;;;17.93;3.07;;;;;;;17.70;54.77;100801.94;5051389;28;20055;-67
2023/01/11 06:13:28;;;;;;;16.42;2.08;;;;;;;16.88;57.40;100812.94;5082850;28;20469;-67
2023/01/11 06:15:57;;;;;;;22.43;3.23;;;;;;;16.61;58.13;100812.19;5032042;28;20029;-67
2023/01/11 06:18:22;;;;;;;15.13;2.40;;;;;;;17.10;56.28;100812.19;5031585;28;20057;-67
2023/01/11 06:20:52;;;;;;;14.63;2.73;;;;;;;16.37;58.26;100820.00;5041695;28;20075;-67
2023/01/11 06:23:17;;;;;;;21.77;2.67;;;;;;;16.46;58.64;100832.03;5049027;28;20155;-67
2023/01/11 06:25:43;;;;;;;18.77;2.73;;;;;;;16.33;59.36;100831.59;5047260;28;20120;-67
2023/01/11 06:28:09;;;;;;;13.87;1.97;;;;;;;16.67;57.15;100827.78;5030830;28;20030;-69
2023/01/11 06:30:35;;;;;;;17.67;2.47;;;;;;;16.39;58.54;100826.13;5049401;28;20052;-67
2023/01/11 06:33:04;;;;;;;19.60;2.50;;;;;;;16.29;59.40;100835.25;5049928;28;20115;-67
2023/01/11 06:35:33;;;;;;;20.07;2.50;;;;;;;17.53;54.49;100809.66;5042597;28;20034;-67
2023/01/11 06:37:58;;;;;;;12.83;2.03;;;;;;;17.60;53.05;100821.72;5040829;28;20036;-67
2023/01/11 06:40:23;;;;;;;16.37;2.13;;;;;;;18.14;52.42;100832.78;5051545;28;20037;-67
2023/01/11 06:42:49;;;;;;;17.80;2.37;;;;;;;17.33;55.14;100845.66;5052120;28;20037;-67
2023/01/11 06:45:14;;;;;;;29.13;3.10;;;;;;;17.09;55.41;100856.22;5049646;28;20041;-67
2023/01/11 06:47:39;;;;;;;20.13;2.43;;;;;;;16.99;55.97;100852.19;5051367;28;20029;-67
2023/01/11 06:50:05;;;;;;;14.37;2.30;;;;;;;17.59;53.99;100857.00;5052558;28;20029;-68
2023/01/11 06:52:31;;;;;;;18.93;3.40;;;;;;;16.84;55.59;100863.25;5047461;28;20563;-68
2023/01/11 06:54:56;;;;;;;15.50;2.57;;;;;;;17.38;53.66;100859.56;5051254;28;20477;-68
2023/01/11 06:57:21;;;;;;;15.27;2.80;;;;;;;17.41;53.00;100859.44;5034391;28;20494;-68
2023/01/11 06:59:47;;;;;;;18.87;2.50;;;;;;;16.71;55.52;100874.25;5045742;28;20404;-68
2023/01/11 07:02:13;;;;;;;19.23;2.67;;;;;;;17.22;54.33;100868.97;5049563;28;20072;-68
2023/01/11 07:04:38;;;;;;;16.80;2.53;;;;;;;18.35;51.17;100857.47;5050648;28;20134;-67
2023/01/11 07:07:03;;;;;;;28.70;2.50;;;;;;;16.74;54.87;100862.75;5050790;28;20485;-68
2023/01/11 07:09:29;;;;;;;22.53;2.50;;;;;;;16.89;53.72;100880.69;5051246;28;20036;-68
2023/01/11 07:11:54;;;;;;;25.37;3.33;;;;;;;17.17;53.23;100897.31;5052077;28;20037;-68
2023/01/11 07:14:20;;;;;;;16.23;2.23;;;;;;;16.36;55.77;100894.81;5062581;28;20434;-68
2023/01/11 07:16:46;;;;;;;23.03;2.80;;;;;;;16.84;53.59;100895.78;5048263;28;20075;-68
2023/01/11 07:19:11;;;;;;;26.40;2.93;;;;;;;17.26;53.25;100897.00;5048018;28;20467;-68
2023/01/11 07:21:37;;;;;;;18.40;2.37;;;;;;;16.26;55.64;100898.63;5051782;28;20062;-68
2023/01/11 07:24:03;;;;;;;23.23;2.47;;;;;;;17.17;52.84;100902.59;5048313;28;20097;-68
2023/01/11 07:26:30;;;;;;;22.67;2.70;;;;;;;16.68;54.47;100906.03;5031006;28;20105;-68
2023/01/11 07:28:55;;;;;;;23.23;2.70;;;;;;;17.25;52.04;100903.19;5029863;28;20029;-68
2023/01/11 07:31:20;;;;;;;19.07;2.33;;;;;;;16.12;57.16;100896.47;5030915;28;20021;-68
2023/01/11 07:33:46;;;;;;;22.43;3.43;;;;;;;16.68;54.78;100911.31;5031685;28;20456;-68
2023/01/11 07:36:11;;;;;;;25.83;3.50;;;;;;;17.40;52.05;100905.25;5038086;28;20068;-68
2023/01/11 07:38:37;;;;;;;25.37;3.00;;;;;;;16.73;53.11;100914.66;5031755;28;20041;-69
2023/01/11 07:43:10;;;;;;;24.10;2.70;;;;;;;16.11;55.41;100921.97;5081475;28;20188;-68
2023/01/11 07:43:47;;;;;;;26.97;3.17;;;;;;;16.53;54.20;100922.41;5050726;28;20036;-68
2023/01/11 07:46:13;;;;;;;23.83;2.87;;;;;;;15.88;57.59;100919.16;5048728;28;20029;-68
2023/01/11 07:48:38;;;;;;;23.77;2.73;;;;;;;16.30;55.24;100931.91;5041486;28;20045;-68
2023/01/11 07:51:04;;;;;;;27.63;3.40;;;;;;;16.38;54.88;100939.59;5046892;28;20129;-68
2023/01/11 07:53:29;;;;;;;19.83;3.57;;;;;;;16.77;53.51;100944.44;5051022;28;20397;-68
2023/01/11 07:55:55;;;;;;;30.20;3.63;;;;;;;16.85;52.69;100944.19;5047305;28;20111;-69
2023/01/11 07:58:20;;;;;;;19.60;2.77;;;;;;;17.39;51.44;100947.59;5045856;28;20037;-69
2023/01/11 08:00:45;;;;;;;23.50;4.13;;;;;;;16.48;53.99;100951.56;5046153;28;20029;-69
2023/01/11 08:03:11;;;;;;;30.30;2.90;;;;;;;16.52;53.08;100953.19;5048249;28;20039;-69
2023/01/11 08:05:37;;;;;;;29.03;3.07;;;;;;;15.91;56.56;100966.53;5050337;28;20068;-68
2023/01/11 08:08:04;;;;;;;32.93;3.50;;;;;;;15.99;54.21;100959.25;5049512;28;20064;-68
2023/01/11 08:10:29;;;;;;;23.63;3.80;;;;;;;17.04;51.80;100966.41;5047409;28;20025;-69
2023/01/11 08:15:41;;;;;;;29.40;3.10;;;;;;;16.43;54.25;100979.84;5048230;28;20047;-69
2023/01/11 08:18:07;;;;;;;25.53;2.93;;;;;;;16.72;53.10;100973.63;5045979;28;20021;-68
2023/01/11 08:20:32;;;;;;;30.77;4.30;;;;;;;15.51;56.61;100978.19;5049870;28;20095;-68
2023/01/11 08:23:02;;;;;;;21.00;3.10;;;;;;;16.94;52.28;100978.22;5050797;28;20024;-68
2023/01/11 08:25:27;;;;;;;22.43;3.47;;;;;;;16.14;54.27;100978.16;5050162;28;20384;-69
2023/01/11 08:27:52;;;;;;;23.53;2.97;;;;;;;17.52;50.28;100982.38;5047612;28;20028;-68
2023/01/11 08:30:18;;;;;;;27.47;4.00;;;;;;;16.82;52.19;100982.09;5044925;28;20444;-69
2023/01/11 08:32:43;;;;;;;26.97;3.23;;;;;;;15.84;55.31;101004.50;5049896;28;20047;-69
2023/01/11 08:35:09;;;;;;;25.60;3.00;;;;;;;16.69;52.85;101000.16;5048443;28;20078;-69
2023/01/11 08:37:34;;;;;;;26.37;3.57;;;;;;;17.01;51.57;101003.50;5048807;28;20033;-69
2023/01/11 08:39:59;;;;;;;37.20;4.50;;;;;;;17.39;50.14;100998.66;5048787;28;20043;-69
2023/01/11 08:42:25;;;;;;;26.63;3.37;;;;;;;16.54;52.13;101019.09;5048755;28;20021;-69
2023/01/11 08:44:51;;;;;;;22.07;3.43;;;;;;;16.52;52.65;101010.38;5048147;28;20025;-69
2023/01/11 08:47:16;;;;;;;20.40;3.37;;;;;;;16.20;53.59;101006.97;5049017;28;20029;-68
2023/01/11 08:49:42;;;;;;;25.87;3.40;;;;;;;16.44;51.67;101007.97;5049327;28;20543;-69
2023/01/11 08:52:12;;;;;;;26.93;3.97;;;;;;;17.01;51.53;101014.06;5050191;28;20037;-69
2023/01/11 08:54:38;;;;;;;20.80;2.50;;;;;;;16.37;53.04;101017.84;5047626;28;20035;-69
2023/01/11 08:57:04;;;;;;;21.33;3.90;;;;;;;16.53;52.94;101012.97;5048482;28;20112;-69
2023/01/11 08:59:29;;;;;;;25.87;3.60;;;;;;;16.85;51.37;101002.25;5051882;28;20182;-69
2023/01/11 09:01:55;;;;;;;23.23;3.47;;;;;;;16.50;53.55;101015.69;5047564;28;20025;-69
2023/01/11 09:04:20;;;;;;;32.87;3.60;;;;;;;17.05;51.67;101013.03;5049857;28;20021;-69
2023/01/11 09:06:46;;;;;;;25.90;3.97;;;;;;;16.28;52.36;101024.28;5048718;28;20025;-69
2023/01/11 09:09:11;;;;;;;19.97;2.87;;;;;;;16.96;50.80;101010.72;5048928;28;20032;-69
2023/01/11 09:14:23;;;;;;;26.80;3.47;;;;;;;15.99;54.20;101022.53;5049977;28;20056;-69
2023/01/11 09:16:50;;;;;;;27.60;4.27;;;;;;;16.10;55.08;101028.34;5081563;28;20024;-69
2023/01/11 09:19:15;;;;;;;24.90;4.13;;;;;;;16.02;54.71;101032.97;5045058;28;20610;-69
2023/01/11 09:21:42;;;;;;;22.17;3.40;;;;;;;16.37;53.16;101033.66;5049440;28;20041;-68
2023/01/11 09:24:07;;;;;;;27.63;4.37;;;;;;;16.24;54.74;101032.34;5046957;28;20021;-68
2023/01/11 09:26:33;;;;;;;17.83;2.97;;;;;;;16.28;55.25;101028.72;5029474;28;20083;-68
2023/01/11 09:28:58;;;;;;;28.80;4.63;;;;;;;16.27;53.58;101032.25;5049086;28;20477;-68
2023/01/11 09:31:24;;;;;;;27.30;3.53;;;;;;;15.66;55.55;101035.75;5035778;28;20040;-68
2023/01/11 09:33:49;;;;;;;34.23;4.07;;;;;;;16.53;52.78;101030.56;5045263;28;20110;-69
2023/01/11 09:36:17;;;;;;;25.40;4.67;;;;;;;16.53;52.92;101028.78;5039770;28;20029;-67
2023/01/11 09:38:43;;;;;;;21.97;3.57;;;;;;;16.70;52.27;101030.88;5051869;28;20054;-67
2023/01/11 09:41:25;;;;;;;29.80;4.03;;;;;;;16.92;52.08;101030.22;5052787;28;20039;-67
2023/01/11 09:43:55;;;;;;;29.52;3.15;;;;;;;16.60;51.92;101029.47;5044244;28;20041;-68
2023/01/11 09:46:23;;;;;;;23.17;3.77;;;;;;;17.00;51.41;101043.16;5046960;28;20484;-67
2023/01/11 09:48:58;;;;;;;21.27;2.83;;;;;;;16.36;52.63;101052.19;5048824;28;20033;-67
2023/01/11 09:51:30;;;;;;;43.97;5.17;;;;;;;16.19;53.45;101056.19;5046567;28;20029;-68
2023/01/11 09:53:57;;;;;;;28.17;3.20;;;;;;;17.28;49.94;101048.34;5047386;28;20028;-68
2023/01/11 09:56:30;;;;;;;28.50;3.63;;;;;;;17.68;48.74;101057.53;5049691;28;20021;-67
2023/01/11 09:59:04;;;;;;;20.25;3.05;;;;;;;16.92;49.56;101068.03;5082739;28;20148;-68
2023/01/11 10:01:37;;;;;;;20.43;2.47;;;;;;;16.98;49.24;101066.97;5050712;28;20049;-68
2023/01/11 10:04:36;;;;;;;21.47;2.90;;;;;;;16.45;50.28;101079.16;5047833;28;20603;-68
2023/01/11 10:07:36;;;;;;;21.10;2.67;;;;;;;17.88;47.49;101085.88;5030489;28;20133;-68
2023/01/11 10:10:28;;;;;;;23.20;2.93;;;;;;;18.19;46.57;101079.50;5046756;28;20037;-68
2023/01/11 10:13:15;;;;;;;23.80;2.83;;;;;;;17.71;48.92;101083.84;5062861;28;20076;-68
2023/01/11 10:16:04;;;;;;;23.70;3.30;;;;;;;16.45;51.26;101094.13;5058138;28;20151;-67
2023/01/11 10:18:30;;;;;;;15.43;2.97;;;;;;;16.01;52.42;101088.41;5049500;28;20127;-68
2023/01/11 10:21:05;;;;;;;23.10;3.20;;;;;;;17.03;50.06;101099.34;5047366;28;20178;-68
2023/01/11 10:23:36;;;;;;;21.07;2.23;;;;;;;16.74;49.99;101084.44;5067458;28;20400;-68
2023/01/11 10:26:08;;;;;;;15.33;2.43;;;;;;;16.57;50.34;101098.16;5048165;28;20037;-68
2023/01/11 10:28:54;;;;;;;25.38;3.67;;;;;;;17.49;49.42;101085.50;5050479;28;20033;-68
2023/01/11 10:31:47;;;;;;;25.03;3.40;;;;;;;18.25;47.49;101088.97;5048549;28;20095;-68
2023/01/11 10:37:39;;;;;;;22.27;3.13;;;;;;;17.91;47.20;101106.06;5038738;28;20391;-68
2023/01/11 10:40:38;;;;;;;18.90;2.67;;;;;;;18.37;46.95;101093.78;5040362;28;20083;-68
2023/01/11 10:43:20;;;;;;;21.73;3.43;;;;;;;18.88;45.62;101099.75;5046815;28;20130;-68
2023/01/11 10:45:50;;;;;;;17.02;2.70;;;;;;;18.22;46.82;101099.69;5049613;28;20025;-67
2023/01/11 10:48:33;;;;;;;25.83;4.23;;;;;;;18.31;46.34;101097.53;5050044;28;20017;-68
2023/01/11 10:51:23;;;;;;;11.60;2.03;;;;;;;18.13;47.40;101100.88;5051763;28;20039;-68
2023/01/11 10:53:48;;;;;;;19.73;3.23;;;;;;;18.05;47.19;101103.81;5050834;28;20033;-68
2023/01/11 10:56:38;;;;;;;18.50;3.00;;;;;;;17.69;47.09;101112.09;5050271;28;20036;-68
2023/01/11 10:59:26;;;;;;;23.47;3.17;;;;;;;18.03;46.84;101110.06;5050977;28;20503;-68
2023/01/11 11:02:15;;;;;;;17.67;2.50;;;;;;;18.85;45.32;101093.69;5049809;28;20400;-68
2023/01/11 11:04:49;;;;;;;21.93;2.87;;;;;;;17.63;46.82;101093.84;5050531;28;20052;-68
2023/01/11 11:07:43;;;;;;;18.13;2.83;;;;;;;18.11;46.97;101082.41;5052832;28;20443;-68
2023/01/11 11:10:36;;;;;;;29.50;3.50;;;;;;;18.02;47.07;101087.19;5039941;28;20046;-68
2023/01/11 11:13:10;;;;;;;21.92;2.63;;;;;;;16.83;48.97;101083.28;5050898;28;20068;-68
2023/01/11 11:16:08;;;;;;;22.20;2.83;;;;;;;17.53;48.44;101084.50;5049492;28;20116;-68
2023/01/11 11:18:33;;;;;;;22.17;2.77;;;;;;;18.03;46.42;101081.84;5047330;28;20127;-68
2023/01/11 11:21:05;;;;;;;19.37;2.50;;;;;;;16.84;48.47;101085.00;5050432;28;20154;-68
2023/01/11 11:23:31;;;;;;;18.47;3.20;;;;;;;17.75;47.19;101089.88;5050223;28;20028;-69
2023/01/11 11:26:01;;;;;;;30.70;3.03;;;;;;;17.88;46.79;101091.16;5049633;28;20032;-69
2023/01/11 11:28:31;;;;;;;20.80;2.27;;;;;;;17.02;48.00;101081.81;5041419;28;20037;-68
2023/01/11 11:31:00;;;;;;;24.13;3.20;;;;;;;17.35;47.95;101091.28;5044398;28;20021;-69
2023/01/11 11:33:36;;;;;;;21.20;2.77;;;;;;;16.90;49.20;101080.44;5049855;28;20032;-69
2023/01/11 11:36:07;;;;;;;19.50;2.63;;;;;;;17.24;47.85;101081.06;5042805;28;20037;-69
2023/01/11 11:38:38;;;;;;;23.30;2.73;;;;;;;16.36;49.40;101079.44;5049977;28;20033;-69
2023/01/11 11:41:03;;;;;;;23.30;3.40;;;;;;;17.71;47.35;101082.97;5041206;28;20155;-68
2023/01/11 11:43:30;;;;;;;20.43;3.47;;;;;;;17.68;46.22;101094.53;5035133;28;20466;-69
2023/01/11 11:45:57;;;;;;;19.20;2.83;;;;;;;17.33;46.62;101093.97;5047867;28;20028;-70
2023/01/11 11:48:30;;;;;;;17.17;3.37;;;;;;;15.94;47.40;101100.88;5037462;28;20060;-70
2023/01/11 11:50:57;;;;;;;29.25;3.72;;;;;;;16.73;46.59;101109.97;5044888;28;20108;-70
2023/01/11 11:53:44;;;;;;;20.27;3.03;;;;;;;16.15;47.53;101117.00;5058711;28;20484;-70
2023/01/11 11:56:19;;;;;;;17.10;2.70;;;;;;;15.42;48.97;101096.06;5031367;28;20489;-70
2023/01/11 11:58:46;;;;;;;18.23;2.83;;;;;;;17.17;45.35;101100.69;5044463;28;20040;-70
2023/01/11 12:01:21;;;;;;;25.17;4.40;;;;;;;16.78;45.51;101108.03;5048374;28;20380;-70
2023/01/11 12:03:48;;;;;;;20.23;2.57;;;;;;;16.59;45.86;101106.88;5037708;28;20041;-70